sensor_id;sensor_type;location;lat;lon;timestamp;temperature;humidity
47414;DHT22;33163;0.000;0.000;2023-02-01T00:00:05;18.60;52.10
47414;DHT22;33163;0.000;0.000;2023-02-01T00:02:32;18.60;52.10
47414;DHT22;33163;0.000;0.000;2023-02-01T00:04:58;18.60;52.10
47414;DHT22;33163;0.000;0.000;2023-02-01T00:07:25;18.60;52.10
47414;DHT22;33163;0.000;0.000;2023-02-01T00:09:52;18.60;52.10
47414;DHT22;33163;0.000;0.000;2023-02-01T00:12:19;18.60;52.10
47414;DHT22;33163;0.000;0.000;2023-02-01T00:14:46;18.60;52.10
47414;DHT22;33163;0.000;0.000;2023-02-01T00:17:15;18.60;52.00
47414;DHT22;33163;0.000;0.000;2023-02-01T00:19:41;18.60;52.00
47414;DHT22;33163;0.000;0.000;2023-02-01T00:22:08;18.60;52.00
47414;DHT22;33163;0.000;0.000;2023-02-01T00:24:35;18.60;52.00
47414;DHT22;33163;0.000;0.000;2023-02-01T00:27:02;18.60;51.90
47414;DHT22;33163;0.000;0.000;2023-02-01T00:29:28;18.60;51.90
47414;DHT22;33163;0.000;0.000;2023-02-01T00:31:55;18.60;51.90
47414;DHT22;33163;0.000;0.000;2023-02-01T00:34:23;18.60;51.90
47414;DHT22;33163;0.000;0.000;2023-02-01T00:36:50;18.60;51.90
47414;DHT22;33163;0.000;0.000;2023-02-01T00:39:17;18.60;51.80
47414;DHT22;33163;0.000;0.000;2023-02-01T00:41:44;18.60;51.80
47414;DHT22;33163;0.000;0.000;2023-02-01T00:44:10;18.60;51.80
47414;DHT22;33163;0.000;0.000;2023-02-01T00:46:37;18.50;51.70
47414;DHT22;33163;0.000;0.000;2023-02-01T00:49:04;18.50;51.70
47414;DHT22;33163;0.000;0.000;2023-02-01T00:51:34;18.50;51.70
47414;DHT22;33163;0.000;0.000;2023-02-01T00:54:01;18.50;51.60
47414;DHT22;33163;0.000;0.000;2023-02-01T00:56:28;18.50;51.60
47414;DHT22;33163;0.000;0.000;2023-02-01T00:58:55;18.50;51.60
47414;DHT22;33163;0.000;0.000;2023-02-01T01:01:23;18.50;51.60
47414;DHT22;33163;0.000;0.000;2023-02-01T01:03:52;18.50;51.60
47414;DHT22;33163;0.000;0.000;2023-02-01T01:06:22;18.50;51.60
47414;DHT22;33163;0.000;0.000;2023-02-01T01:08:52;18.50;51.60
47414;DHT22;33163;0.000;0.000;2023-02-01T01:11:22;18.50;51.60
47414;DHT22;33163;0.000;0.000;2023-02-01T01:13:50;18.50;51.60
47414;DHT22;33163;0.000;0.000;2023-02-01T01:16:17;18.50;51.60
47414;DHT22;33163;0.000;0.000;2023-02-01T01:18:45;18.40;51.60
47414;DHT22;33163;0.000;0.000;2023-02-01T01:21:14;18.40;51.60
47414;DHT22;33163;0.000;0.000;2023-02-01T01:23:41;18.50;51.60
47414;DHT22;33163;0.000;0.000;2023-02-01T01:26:11;18.50;51.60
47414;DHT22;33163;0.000;0.000;2023-02-01T01:28:38;18.40;51.60
47414;DHT22;33163;0.000;0.000;2023-02-01T01:31:08;18.40;51.60
47414;DHT22;33163;0.000;0.000;2023-02-01T01:33:35;18.40;51.60
47414;DHT22;33163;0.000;0.000;2023-02-01T01:36:02;18.40;51.60
47414;DHT22;33163;0.000;0.000;2023-02-01T01:38:30;18.40;51.60
47414;DHT22;33163;0.000;0.000;2023-02-01T01:40:57;18.40;51.60
47414;DHT22;33163;0.000;0.000;2023-02-01T01:43:25;18.40;51.60
47414;DHT22;33163;0.000;0.000;2023-02-01T01:45:52;18.40;51.60
47414;DHT22;33163;0.000;0.000;2023-02-01T01:48:22;18.40;51.60
47414;DHT22;33163;0.000;0.000;2023-02-01T01:50:54;18.40;51.60
47414;DHT22;33163;0.000;0.000;2023-02-01T01:53:26;18.40;51.60
47414;DHT22;33163;0.000;0.000;2023-02-01T01:55:54;18.40;51.60
47414;DHT22;33163;0.000;0.000;2023-02-01T01:58:26;18.40;51.60
47414;DHT22;33163;0.000;0.000;2023-02-01T02:00:55;18.40;51.60
47414;DHT22;33163;0.000;0.000;2023-02-01T02:03:25;18.40;51.60
47414;DHT22;33163;0.000;0.000;2023-02-01T02:05:54;18.40;51.60
47414;DHT22;33163;0.000;0.000;2023-02-01T02:08:25;18.40;51.60
47414;DHT22;33163;0.000;0.000;2023-02-01T02:10:53;18.40;51.60
47414;DHT22;33163;0.000;0.000;2023-02-01T02:13:30;18.40;51.60
47414;DHT22;33163;0.000;0.000;2023-02-01T02:16:10;18.40;51.60
47414;DHT22;33163;0.000;0.000;2023-02-01T02:18:51;18.40;51.60
47414;DHT22;33163;0.000;0.000;2023-02-01T02:21:35;18.40;51.60
47414;DHT22;33163;0.000;0.000;2023-02-01T02:27:24;18.40;51.60
47414;DHT22;33163;0.000;0.000;2023-02-01T02:33:40;18.40;51.60
47414;DHT22;33163;0.000;0.000;2023-02-01T02:36:12;18.40;51.60
47414;DHT22;33163;0.000;0.000;2023-02-01T02:38:49;18.40;51.60
47414;DHT22;33163;0.000;0.000;2023-02-01T02:41:19;18.40;51.60
47414;DHT22;33163;0.000;0.000;2023-02-01T02:44:07;18.40;51.60
47414;DHT22;33163;0.000;0.000;2023-02-01T02:46:59;18.40;51.70
47414;DHT22;33163;0.000;0.000;2023-02-01T02:49:51;18.40;51.60
47414;DHT22;33163;0.000;0.000;2023-02-01T02:52:42;18.30;51.60
47414;DHT22;33163;0.000;0.000;2023-02-01T02:55:28;18.40;51.60
47414;DHT22;33163;0.000;0.000;2023-02-01T02:57:57;18.30;51.60
47414;DHT22;33163;0.000;0.000;2023-02-01T03:00:42;18.30;51.60
47414;DHT22;33163;0.000;0.000;2023-02-01T03:03:28;18.30;51.60
47414;DHT22;33163;0.000;0.000;2023-02-01T03:06:16;18.30;51.60
47414;DHT22;33163;0.000;0.000;2023-02-01T03:08:44;18.30;51.60
47414;DHT22;33163;0.000;0.000;2023-02-01T03:11:13;18.30;51.60
47414;DHT22;33163;0.000;0.000;2023-02-01T03:13:44;18.30;51.60
47414;DHT22;33163;0.000;0.000;2023-02-01T03:16:13;18.30;51.60
47414;DHT22;33163;0.000;0.000;2023-02-01T03:18:47;18.30;51.60
47414;DHT22;33163;0.000;0.000;2023-02-01T03:21:22;18.30;51.60
47414;DHT22;33163;0.000;0.000;2023-02-01T03:23:52;18.30;51.60
47414;DHT22;33163;0.000;0.000;2023-02-01T03:26:20;18.30;51.60
47414;DHT22;33163;0.000;0.000;2023-02-01T03:28:53;18.30;51.60
47414;DHT22;33163;0.000;0.000;2023-02-01T03:31:21;18.30;51.60
47414;DHT22;33163;0.000;0.000;2023-02-01T03:33:48;18.30;51.60
47414;DHT22;33163;0.000;0.000;2023-02-01T03:36:22;18.20;51.50
47414;DHT22;33163;0.000;0.000;2023-02-01T03:38:55;18.20;51.50
47414;DHT22;33163;0.000;0.000;2023-02-01T03:41:28;18.30;51.50
47414;DHT22;33163;0.000;0.000;2023-02-01T03:44:04;18.30;51.60
47414;DHT22;33163;0.000;0.000;2023-02-01T03:46:37;18.20;51.50
47414;DHT22;33163;0.000;0.000;2023-02-01T03:49:08;18.20;51.60
47414;DHT22;33163;0.000;0.000;2023-02-01T03:51:38;18.20;51.50
47414;DHT22;33163;0.000;0.000;2023-02-01T03:54:10;18.20;51.50
47414;DHT22;33163;0.000;0.000;2023-02-01T03:56:42;18.20;51.50
47414;DHT22;33163;0.000;0.000;2023-02-01T03:59:10;18.20;51.50
47414;DHT22;33163;0.000;0.000;2023-02-01T04:01:37;18.20;51.50
47414;DHT22;33163;0.000;0.000;2023-02-01T04:04:05;18.20;51.50
47414;DHT22;33163;0.000;0.000;2023-02-01T04:06:32;18.20;51.50
47414;DHT22;33163;0.000;0.000;2023-02-01T04:09:00;18.20;51.50
47414;DHT22;33163;0.000;0.000;2023-02-01T04:11:28;18.20;51.50
47414;DHT22;33163;0.000;0.000;2023-02-01T04:13:55;18.20;51.50
47414;DHT22;33163;0.000;0.000;2023-02-01T04:16:22;18.20;51.50
47414;DHT22;33163;0.000;0.000;2023-02-01T04:18:48;18.20;51.50
47414;DHT22;33163;0.000;0.000;2023-02-01T04:21:16;18.20;51.50
47414;DHT22;33163;0.000;0.000;2023-02-01T04:23:42;18.20;51.50
47414;DHT22;33163;0.000;0.000;2023-02-01T04:26:11;18.10;51.40
47414;DHT22;33163;0.000;0.000;2023-02-01T04:28:37;18.10;51.40
47414;DHT22;33163;0.000;0.000;2023-02-01T04:31:04;18.10;51.40
47414;DHT22;33163;0.000;0.000;2023-02-01T04:33:31;18.10;51.50
47414;DHT22;33163;0.000;0.000;2023-02-01T04:35:58;18.10;51.40
47414;DHT22;33163;0.000;0.000;2023-02-01T04:38:24;18.10;51.40
47414;DHT22;33163;0.000;0.000;2023-02-01T04:40:52;18.10;51.40
47414;DHT22;33163;0.000;0.000;2023-02-01T04:43:20;18.10;51.40
47414;DHT22;33163;0.000;0.000;2023-02-01T04:45:47;18.10;51.40
47414;DHT22;33163;0.000;0.000;2023-02-01T04:48:15;18.10;51.40
47414;DHT22;33163;0.000;0.000;2023-02-01T04:50:42;18.10;51.40
47414;DHT22;33163;0.000;0.000;2023-02-01T04:53:10;18.10;51.40
47414;DHT22;33163;0.000;0.000;2023-02-01T04:55:37;18.10;51.40
47414;DHT22;33163;0.000;0.000;2023-02-01T04:58:04;18.10;51.40
47414;DHT22;33163;0.000;0.000;2023-02-01T05:00:32;18.10;51.40
47414;DHT22;33163;0.000;0.000;2023-02-01T05:02:59;18.10;51.40
47414;DHT22;33163;0.000;0.000;2023-02-01T05:05:26;18.10;51.40
47414;DHT22;33163;0.000;0.000;2023-02-01T05:07:53;18.10;51.40
47414;DHT22;33163;0.000;0.000;2023-02-01T05:10:20;18.10;51.40
47414;DHT22;33163;0.000;0.000;2023-02-01T05:12:47;18.10;51.40
47414;DHT22;33163;0.000;0.000;2023-02-01T05:15:32;18.10;51.40
47414;DHT22;33163;0.000;0.000;2023-02-01T05:17:59;18.10;51.50
47414;DHT22;33163;0.000;0.000;2023-02-01T05:20:26;18.10;51.40
47414;DHT22;33163;0.000;0.000;2023-02-01T05:22:53;18.10;51.40
47414;DHT22;33163;0.000;0.000;2023-02-01T05:25:19;18.10;51.40
47414;DHT22;33163;0.000;0.000;2023-02-01T05:27:46;18.00;51.40
47414;DHT22;33163;0.000;0.000;2023-02-01T05:30:13;18.00;51.40
47414;DHT22;33163;0.000;0.000;2023-02-01T05:32:41;18.00;51.40
47414;DHT22;33163;0.000;0.000;2023-02-01T05:35:09;18.00;51.40
47414;DHT22;33163;0.000;0.000;2023-02-01T05:37:35;18.10;51.50
47414;DHT22;33163;0.000;0.000;2023-02-01T05:40:03;18.10;51.40
47414;DHT22;33163;0.000;0.000;2023-02-01T05:42:29;18.10;51.20
47414;DHT22;33163;0.000;0.000;2023-02-01T05:44:56;18.10;51.00
47414;DHT22;33163;0.000;0.000;2023-02-01T05:47:23;18.20;51.10
47414;DHT22;33163;0.000;0.000;2023-02-01T05:49:51;18.20;51.00
47414;DHT22;33163;0.000;0.000;2023-02-01T05:52:18;18.30;50.90
47414;DHT22;33163;0.000;0.000;2023-02-01T05:54:45;18.30;50.80
47414;DHT22;33163;0.000;0.000;2023-02-01T05:57:12;18.30;50.70
47414;DHT22;33163;0.000;0.000;2023-02-01T05:59:39;18.30;50.70
47414;DHT22;33163;0.000;0.000;2023-02-01T06:02:07;18.30;50.70
47414;DHT22;33163;0.000;0.000;2023-02-01T06:04:34;18.30;50.60
47414;DHT22;33163;0.000;0.000;2023-02-01T06:07:02;18.30;50.60
47414;DHT22;33163;0.000;0.000;2023-02-01T06:09:28;18.30;50.60
47414;DHT22;33163;0.000;0.000;2023-02-01T06:11:55;18.30;50.60
47414;DHT22;33163;0.000;0.000;2023-02-01T06:14:23;18.30;50.60
47414;DHT22;33163;0.000;0.000;2023-02-01T06:16:50;18.30;50.70
47414;DHT22;33163;0.000;0.000;2023-02-01T06:19:16;18.30;50.70
47414;DHT22;33163;0.000;0.000;2023-02-01T06:21:43;18.30;50.70
47414;DHT22;33163;0.000;0.000;2023-02-01T06:24:11;18.30;50.60
47414;DHT22;33163;0.000;0.000;2023-02-01T06:26:38;18.30;50.70
47414;DHT22;33163;0.000;0.000;2023-02-01T06:29:05;18.30;50.70
47414;DHT22;33163;0.000;0.000;2023-02-01T06:31:32;18.30;50.60
47414;DHT22;33163;0.000;0.000;2023-02-01T06:33:59;18.30;50.60
47414;DHT22;33163;0.000;0.000;2023-02-01T06:36:26;18.30;50.70
47414;DHT22;33163;0.000;0.000;2023-02-01T06:38:53;18.30;50.70
47414;DHT22;33163;0.000;0.000;2023-02-01T06:41:23;18.30;51.60
47414;DHT22;33163;0.000;0.000;2023-02-01T06:43:50;18.30;50.70
47414;DHT22;33163;0.000;0.000;2023-02-01T06:46:17;18.30;50.80
47414;DHT22;33163;0.000;0.000;2023-02-01T06:48:44;18.30;51.10
47414;DHT22;33163;0.000;0.000;2023-02-01T06:51:22;18.30;51.30
47414;DHT22;33163;0.000;0.000;2023-02-01T06:53:49;18.30;51.60
47414;DHT22;33163;0.000;0.000;2023-02-01T06:56:16;18.30;51.60
47414;DHT22;33163;0.000;0.000;2023-02-01T06:58:44;18.30;52.40
47414;DHT22;33163;0.000;0.000;2023-02-01T07:01:12;18.30;52.20
47414;DHT22;33163;0.000;0.000;2023-02-01T07:03:39;18.30;52.00
47414;DHT22;33163;0.000;0.000;2023-02-01T07:06:07;18.20;52.00
47414;DHT22;33163;0.000;0.000;2023-02-01T07:08:35;18.20;52.30
47414;DHT22;33163;0.000;0.000;2023-02-01T07:11:03;18.10;52.20
47414;DHT22;33163;0.000;0.000;2023-02-01T07:13:30;18.10;52.40
47414;DHT22;33163;0.000;0.000;2023-02-01T07:16:02;18.10;52.40
47414;DHT22;33163;0.000;0.000;2023-02-01T07:18:30;18.10;52.90
47414;DHT22;33163;0.000;0.000;2023-02-01T07:20:57;18.10;53.10
47414;DHT22;33163;0.000;0.000;2023-02-01T07:23:25;18.10;52.80
47414;DHT22;33163;0.000;0.000;2023-02-01T07:25:54;18.10;52.60
47414;DHT22;33163;0.000;0.000;2023-02-01T07:28:21;18.10;52.80
47414;DHT22;33163;0.000;0.000;2023-02-01T07:30:48;18.20;52.90
47414;DHT22;33163;0.000;0.000;2023-02-01T07:33:18;18.20;53.00
47414;DHT22;33163;0.000;0.000;2023-02-01T07:35:45;18.20;53.10
47414;DHT22;33163;0.000;0.000;2023-02-01T07:38:12;18.30;53.20
47414;DHT22;33163;0.000;0.000;2023-02-01T07:40:39;18.30;53.10
47414;DHT22;33163;0.000;0.000;2023-02-01T07:43:05;18.30;53.10
47414;DHT22;33163;0.000;0.000;2023-02-01T07:45:33;18.30;53.00
47414;DHT22;33163;0.000;0.000;2023-02-01T07:48:00;18.30;53.00
47414;DHT22;33163;0.000;0.000;2023-02-01T07:50:28;18.30;53.00
47414;DHT22;33163;0.000;0.000;2023-02-01T07:52:56;18.30;53.10
47414;DHT22;33163;0.000;0.000;2023-02-01T07:55:24;18.30;53.10
47414;DHT22;33163;0.000;0.000;2023-02-01T07:57:51;18.30;53.00
47414;DHT22;33163;0.000;0.000;2023-02-01T08:00:19;18.30;52.90
47414;DHT22;33163;0.000;0.000;2023-02-01T08:03:03;18.40;52.80
47414;DHT22;33163;0.000;0.000;2023-02-01T08:05:32;18.40;52.80
47414;DHT22;33163;0.000;0.000;2023-02-01T08:07:59;18.40;52.80
47414;DHT22;33163;0.000;0.000;2023-02-01T08:10:26;18.40;52.70
47414;DHT22;33163;0.000;0.000;2023-02-01T08:12:58;18.50;52.70
47414;DHT22;33163;0.000;0.000;2023-02-01T08:15:25;18.40;52.60
47414;DHT22;33163;0.000;0.000;2023-02-01T08:17:52;18.50;52.50
47414;DHT22;33163;0.000;0.000;2023-02-01T08:20:20;18.50;52.50
47414;DHT22;33163;0.000;0.000;2023-02-01T08:22:49;18.60;52.40
47414;DHT22;33163;0.000;0.000;2023-02-01T08:25:16;18.60;52.20
47414;DHT22;33163;0.000;0.000;2023-02-01T08:27:43;18.60;52.10
47414;DHT22;33163;0.000;0.000;2023-02-01T08:30:12;18.60;52.00
47414;DHT22;33163;0.000;0.000;2023-02-01T08:32:39;18.60;51.90
47414;DHT22;33163;0.000;0.000;2023-02-01T08:35:06;18.60;51.80
47414;DHT22;33163;0.000;0.000;2023-02-01T08:37:33;18.60;51.80
47414;DHT22;33163;0.000;0.000;2023-02-01T08:40:02;18.70;51.80
47414;DHT22;33163;0.000;0.000;2023-02-01T08:42:29;18.70;51.80
47414;DHT22;33163;0.000;0.000;2023-02-01T08:45:13;18.70;51.70
47414;DHT22;33163;0.000;0.000;2023-02-01T08:47:40;18.70;51.60
47414;DHT22;33163;0.000;0.000;2023-02-01T08:50:08;18.70;51.50
47414;DHT22;33163;0.000;0.000;2023-02-01T08:52:35;18.70;51.50
47414;DHT22;33163;0.000;0.000;2023-02-01T08:55:04;18.70;51.50
47414;DHT22;33163;0.000;0.000;2023-02-01T08:57:31;18.70;51.60
47414;DHT22;33163;0.000;0.000;2023-02-01T08:59:58;18.70;51.50
47414;DHT22;33163;0.000;0.000;2023-02-01T09:02:25;18.70;51.50
47414;DHT22;33163;0.000;0.000;2023-02-01T09:04:52;18.70;51.60
47414;DHT22;33163;0.000;0.000;2023-02-01T09:07:19;18.70;51.60
47414;DHT22;33163;0.000;0.000;2023-02-01T09:09:46;18.70;51.50
47414;DHT22;33163;0.000;0.000;2023-02-01T09:12:14;18.70;51.70
47414;DHT22;33163;0.000;0.000;2023-02-01T09:14:41;18.70;51.40
47414;DHT22;33163;0.000;0.000;2023-02-01T09:17:08;18.70;51.60
47414;DHT22;33163;0.000;0.000;2023-02-01T09:19:35;18.70;51.50
47414;DHT22;33163;0.000;0.000;2023-02-01T09:22:02;18.80;51.50
47414;DHT22;33163;0.000;0.000;2023-02-01T09:24:29;18.70;51.50
47414;DHT22;33163;0.000;0.000;2023-02-01T09:26:55;18.80;51.70
47414;DHT22;33163;0.000;0.000;2023-02-01T09:29:23;18.80;51.70
47414;DHT22;33163;0.000;0.000;2023-02-01T09:31:50;18.80;51.80
47414;DHT22;33163;0.000;0.000;2023-02-01T09:34:17;18.80;51.90
47414;DHT22;33163;0.000;0.000;2023-02-01T09:36:44;18.80;52.80
47414;DHT22;33163;0.000;0.000;2023-02-01T09:39:11;18.70;52.90
47414;DHT22;33163;0.000;0.000;2023-02-01T09:41:45;18.80;52.40
47414;DHT22;33163;0.000;0.000;2023-02-01T09:44:26;18.80;52.40
47414;DHT22;33163;0.000;0.000;2023-02-01T09:46:58;18.80;52.30
47414;DHT22;33163;0.000;0.000;2023-02-01T09:49:29;18.90;52.20
47414;DHT22;33163;0.000;0.000;2023-02-01T09:51:56;18.90;52.10
47414;DHT22;33163;0.000;0.000;2023-02-01T09:54:26;18.80;52.00
47414;DHT22;33163;0.000;0.000;2023-02-01T09:56:57;18.80;51.90
47414;DHT22;33163;0.000;0.000;2023-02-01T09:59:32;18.80;51.80
47414;DHT22;33163;0.000;0.000;2023-02-01T10:02:02;18.80;51.70
47414;DHT22;33163;0.000;0.000;2023-02-01T10:04:30;18.80;51.70
47414;DHT22;33163;0.000;0.000;2023-02-01T10:07:12;18.80;51.70
47414;DHT22;33163;0.000;0.000;2023-02-01T10:09:58;18.80;51.70
47414;DHT22;33163;0.000;0.000;2023-02-01T10:12:48;18.90;51.60
47414;DHT22;33163;0.000;0.000;2023-02-01T10:15:35;18.90;51.40
47414;DHT22;33163;0.000;0.000;2023-02-01T10:18:11;18.90;52.10
47414;DHT22;33163;0.000;0.000;2023-02-01T10:20:52;18.80;51.30
47414;DHT22;33163;0.000;0.000;2023-02-01T10:23:35;18.90;51.40
47414;DHT22;33163;0.000;0.000;2023-02-01T10:26:08;18.90;51.40
47414;DHT22;33163;0.000;0.000;2023-02-01T10:28:39;18.90;51.30
47414;DHT22;33163;0.000;0.000;2023-02-01T10:31:09;18.90;51.30
47414;DHT22;33163;0.000;0.000;2023-02-01T10:33:39;18.90;51.40
47414;DHT22;33163;0.000;0.000;2023-02-01T10:36:15;18.90;51.70
47414;DHT22;33163;0.000;0.000;2023-02-01T10:38:44;19.00;51.80
47414;DHT22;33163;0.000;0.000;2023-02-01T10:41:13;19.00;51.80
47414;DHT22;33163;0.000;0.000;2023-02-01T10:43:41;19.00;51.90
47414;DHT22;33163;0.000;0.000;2023-02-01T10:46:10;19.00;51.90
47414;DHT22;33163;0.000;0.000;2023-02-01T10:48:37;19.00;52.00
47414;DHT22;33163;0.000;0.000;2023-02-01T10:51:09;19.00;52.10
47414;DHT22;33163;0.000;0.000;2023-02-01T10:53:41;19.00;52.00
47414;DHT22;33163;0.000;0.000;2023-02-01T10:56:10;19.00;52.00
47414;DHT22;33163;0.000;0.000;2023-02-01T10:58:43;19.00;51.90
47414;DHT22;33163;0.000;0.000;2023-02-01T11:01:16;18.90;51.70
47414;DHT22;33163;0.000;0.000;2023-02-01T11:03:45;18.90;51.80
47414;DHT22;33163;0.000;0.000;2023-02-01T11:06:24;18.80;51.80
47414;DHT22;33163;0.000;0.000;2023-02-01T11:08:53;18.80;52.00
47414;DHT22;33163;0.000;0.000;2023-02-01T11:11:21;18.70;52.00
47414;DHT22;33163;0.000;0.000;2023-02-01T11:13:53;18.70;52.00
47414;DHT22;33163;0.000;0.000;2023-02-01T11:16:29;18.70;52.00
47414;DHT22;33163;0.000;0.000;2023-02-01T11:18:58;18.70;52.10
47414;DHT22;33163;0.000;0.000;2023-02-01T11:21:26;18.80;52.00
47414;DHT22;33163;0.000;0.000;2023-02-01T11:23:53;18.80;51.90
47414;DHT22;33163;0.000;0.000;2023-02-01T11:26:22;18.80;51.80
47414;DHT22;33163;0.000;0.000;2023-02-01T11:28:53;18.70;51.90
47414;DHT22;33163;0.000;0.000;2023-02-01T11:31:22;18.70;51.90
47414;DHT22;33163;0.000;0.000;2023-02-01T11:33:52;18.70;51.90
47414;DHT22;33163;0.000;0.000;2023-02-01T11:36:23;18.60;51.90
47414;DHT22;33163;0.000;0.000;2023-02-01T11:38:54;18.60;52.00
47414;DHT22;33163;0.000;0.000;2023-02-01T11:41:23;18.70;52.00
47414;DHT22;33163;0.000;0.000;2023-02-01T11:43:53;18.70;51.90
47414;DHT22;33163;0.000;0.000;2023-02-01T11:46:23;18.80;51.80
47414;DHT22;33163;0.000;0.000;2023-02-01T11:48:52;18.70;51.80
47414;DHT22;33163;0.000;0.000;2023-02-01T11:51:35;18.70;51.90
47414;DHT22;33163;0.000;0.000;2023-02-01T11:54:26;18.60;52.00
47414;DHT22;33163;0.000;0.000;2023-02-01T11:57:08;18.60;52.10
47414;DHT22;33163;0.000;0.000;2023-02-01T11:59:53;18.60;53.00
47414;DHT22;33163;0.000;0.000;2023-02-01T12:05:40;18.70;52.40
47414;DHT22;33163;0.000;0.000;2023-02-01T12:08:34;18.70;52.40
47414;DHT22;33163;0.000;0.000;2023-02-01T12:11:19;18.70;52.40
47414;DHT22;33163;0.000;0.000;2023-02-01T12:13:55;18.70;52.30
47414;DHT22;33163;0.000;0.000;2023-02-01T12:16:28;18.70;52.50
47414;DHT22;33163;0.000;0.000;2023-02-01T12:19:11;18.70;52.60
47414;DHT22;33163;0.000;0.000;2023-02-01T12:21:58;18.80;52.60
47414;DHT22;33163;0.000;0.000;2023-02-01T12:24:52;18.80;52.50
47414;DHT22;33163;0.000;0.000;2023-02-01T12:27:49;18.80;52.30
47414;DHT22;33163;0.000;0.000;2023-02-01T12:30:43;18.80;52.30
47414;DHT22;33163;0.000;0.000;2023-02-01T12:33:18;18.80;52.30
47414;DHT22;33163;0.000;0.000;2023-02-01T12:36:07;18.80;52.30
47414;DHT22;33163;0.000;0.000;2023-02-01T12:38:39;18.80;52.30
47414;DHT22;33163;0.000;0.000;2023-02-01T12:41:31;18.80;52.30
47414;DHT22;33163;0.000;0.000;2023-02-01T12:44:04;18.80;52.30
47414;DHT22;33163;0.000;0.000;2023-02-01T12:46:35;18.70;52.30
47414;DHT22;33163;0.000;0.000;2023-02-01T12:49:08;18.70;52.40
47414;DHT22;33163;0.000;0.000;2023-02-01T12:51:40;18.80;52.30
47414;DHT22;33163;0.000;0.000;2023-02-01T12:54:21;18.80;52.20
47414;DHT22;33163;0.000;0.000;2023-02-01T12:56:51;18.80;52.20
47414;DHT22;33163;0.000;0.000;2023-02-01T12:59:24;18.70;52.20
47414;DHT22;33163;0.000;0.000;2023-02-01T13:01:54;18.70;52.20
47414;DHT22;33163;0.000;0.000;2023-02-01T13:04:28;18.70;52.30
47414;DHT22;33163;0.000;0.000;2023-02-01T13:07:04;18.70;52.30
47414;DHT22;33163;0.000;0.000;2023-02-01T13:09:37;18.70;52.40
47414;DHT22;33163;0.000;0.000;2023-02-01T13:12:10;18.80;52.30
47414;DHT22;33163;0.000;0.000;2023-02-01T13:14:42;18.90;52.10
47414;DHT22;33163;0.000;0.000;2023-02-01T13:17:14;18.90;51.90
47414;DHT22;33163;0.000;0.000;2023-02-01T13:19:44;18.80;51.90
47414;DHT22;33163;0.000;0.000;2023-02-01T13:22:19;18.80;52.00
47414;DHT22;33163;0.000;0.000;2023-02-01T13:24:50;18.80;52.10
47414;DHT22;33163;0.000;0.000;2023-02-01T13:27:18;18.70;52.10
47414;DHT22;33163;0.000;0.000;2023-02-01T13:29:50;18.70;52.20
47414;DHT22;33163;0.000;0.000;2023-02-01T13:32:48;18.70;52.10
47414;DHT22;33163;0.000;0.000;2023-02-01T13:35:42;18.80;52.10
47414;DHT22;33163;0.000;0.000;2023-02-01T13:38:38;18.80;52.20
47414;DHT22;33163;0.000;0.000;2023-02-01T13:41:20;18.70;52.20
47414;DHT22;33163;0.000;0.000;2023-02-01T13:43:54;18.70;52.30
47414;DHT22;33163;0.000;0.000;2023-02-01T13:46:22;18.60;52.30
47414;DHT22;33163;0.000;0.000;2023-02-01T13:48:51;18.60;52.40
47414;DHT22;33163;0.000;0.000;2023-02-01T13:51:32;18.60;52.50
47414;DHT22;33163;0.000;0.000;2023-02-01T13:54:01;18.70;52.50
47414;DHT22;33163;0.000;0.000;2023-02-01T13:56:28;18.70;52.40
47414;DHT22;33163;0.000;0.000;2023-02-01T13:58:54;18.70;52.30
47414;DHT22;33163;0.000;0.000;2023-02-01T14:01:42;18.70;52.30
47414;DHT22;33163;0.000;0.000;2023-02-01T14:07:20;18.60;52.30
47414;DHT22;33163;0.000;0.000;2023-02-01T14:09:49;18.60;52.40
47414;DHT22;33163;0.000;0.000;2023-02-01T14:12:46;18.60;52.50
47414;DHT22;33163;0.000;0.000;2023-02-01T14:15:19;18.60;52.50
47414;DHT22;33163;0.000;0.000;2023-02-01T14:17:48;18.60;52.40
47414;DHT22;33163;0.000;0.000;2023-02-01T14:20:45;18.70;52.40
47414;DHT22;33163;0.000;0.000;2023-02-01T14:23:28;18.60;52.30
47414;DHT22;33163;0.000;0.000;2023-02-01T14:26:11;18.60;52.40
47414;DHT22;33163;0.000;0.000;2023-02-01T14:28:45;18.60;52.40
47414;DHT22;33163;0.000;0.000;2023-02-01T14:34:13;18.60;52.50
47414;DHT22;33163;0.000;0.000;2023-02-01T14:36:45;18.60;52.60
47414;DHT22;33163;0.000;0.000;2023-02-01T14:42:18;18.60;52.40
47414;DHT22;33163;0.000;0.000;2023-02-01T14:44:47;18.60;52.40
47414;DHT22;33163;0.000;0.000;2023-02-01T14:47:30;18.60;52.40
47414;DHT22;33163;0.000;0.000;2023-02-01T14:52:47;18.60;52.50
47414;DHT22;33163;0.000;0.000;2023-02-01T14:55:17;18.60;52.60
47414;DHT22;33163;0.000;0.000;2023-02-01T14:57:49;18.60;52.60
47414;DHT22;33163;0.000;0.000;2023-02-01T15:00:21;18.60;52.60
47414;DHT22;33163;0.000;0.000;2023-02-01T15:02:49;18.60;52.50
47414;DHT22;33163;0.000;0.000;2023-02-01T15:05:28;18.60;52.50
47414;DHT22;33163;0.000;0.000;2023-02-01T15:08:06;18.60;52.50
47414;DHT22;33163;0.000;0.000;2023-02-01T15:10:42;18.70;52.50
47414;DHT22;33163;0.000;0.000;2023-02-01T15:13:25;18.70;53.20
47414;DHT22;33163;0.000;0.000;2023-02-01T15:16:03;18.80;52.50
47414;DHT22;33163;0.000;0.000;2023-02-01T15:18:31;18.80;52.30
47414;DHT22;33163;0.000;0.000;2023-02-01T15:20:59;18.80;52.20
47414;DHT22;33163;0.000;0.000;2023-02-01T15:23:26;18.80;52.20
47414;DHT22;33163;0.000;0.000;2023-02-01T15:25:54;18.80;52.10
47414;DHT22;33163;0.000;0.000;2023-02-01T15:28:23;18.80;52.10
47414;DHT22;33163;0.000;0.000;2023-02-01T15:30:55;18.80;52.30
47414;DHT22;33163;0.000;0.000;2023-02-01T15:33:23;18.80;52.30
47414;DHT22;33163;0.000;0.000;2023-02-01T15:35:52;18.70;52.40
47414;DHT22;33163;0.000;0.000;2023-02-01T15:38:37;18.70;52.40
47414;DHT22;33163;0.000;0.000;2023-02-01T15:41:10;18.70;52.50
47414;DHT22;33163;0.000;0.000;2023-02-01T15:43:42;18.70;52.40
47414;DHT22;33163;0.000;0.000;2023-02-01T15:46:12;18.80;52.40
47414;DHT22;33163;0.000;0.000;2023-02-01T15:48:44;18.70;52.20
47414;DHT22;33163;0.000;0.000;2023-02-01T15:51:14;18.70;52.30
47414;DHT22;33163;0.000;0.000;2023-02-01T15:53:46;18.70;52.30
47414;DHT22;33163;0.000;0.000;2023-02-01T15:56:14;18.80;52.30
47414;DHT22;33163;0.000;0.000;2023-02-01T15:58:50;18.80;52.30
47414;DHT22;33163;0.000;0.000;2023-02-01T16:01:18;18.80;52.40
47414;DHT22;33163;0.000;0.000;2023-02-01T16:03:46;18.80;52.50
47414;DHT22;33163;0.000;0.000;2023-02-01T16:06:27;18.80;52.50
47414;DHT22;33163;0.000;0.000;2023-02-01T16:09:01;18.80;52.50
47414;DHT22;33163;0.000;0.000;2023-02-01T16:11:29;18.90;53.30
47414;DHT22;33163;0.000;0.000;2023-02-01T16:13:59;19.00;52.60
47414;DHT22;33163;0.000;0.000;2023-02-01T16:16:27;19.10;52.50
47414;DHT22;33163;0.000;0.000;2023-02-01T16:18:54;19.10;52.30
47414;DHT22;33163;0.000;0.000;2023-02-01T16:21:21;19.20;52.20
47414;DHT22;33163;0.000;0.000;2023-02-01T16:23:49;19.20;52.10
47414;DHT22;33163;0.000;0.000;2023-02-01T16:26:16;19.30;52.10
47414;DHT22;33163;0.000;0.000;2023-02-01T16:28:43;19.40;52.00
47414;DHT22;33163;0.000;0.000;2023-02-01T16:31:12;19.40;51.80